Terminal Aerodrome Forecast
Issued by NWS

Home | Current Version | Previous Version | Text Only | Print | Product List | Glossary On
Versions: 1 2 3 4 5 6 7 8 9 10 11 12 13 14 15 16
000
FTUS43 KTOP 231300 AAA
TAFMHK
TAF AMD
KMHK 231313Z 2313/2412 33014G24KT P6SM -TSRA SCT030CB BKN060
     FM231430 05009KT P6SM FEW030 SCT100
     FM240500 10004KT P6SM SCT120=

USA.gov is the U.S. government's official web portal to all federal, state and local government web resources and services.